sensor_id;sensor_type;location;lat;lon;timestamp;temperature;humidity
17202;DHT22;8717;53.588;10.176;2023-02-01T00:02:09;3.30;99.90
17202;DHT22;8717;53.588;10.176;2023-02-01T00:04:36;3.40;99.90
17202;DHT22;8717;53.588;10.176;2023-02-01T00:07:03;3.40;99.90
17202;DHT22;8717;53.588;10.176;2023-02-01T00:09:29;3.50;99.90
17202;DHT22;8717;53.588;10.176;2023-02-01T00:11:57;3.60;99.90
17202;DHT22;8717;53.588;10.176;2023-02-01T00:14:27;3.60;99.90
17202;DHT22;8717;53.588;10.176;2023-02-01T00:16:54;3.60;99.90
17202;DHT22;8717;53.588;10.176;2023-02-01T00:19:20;3.70;99.90
17202;DHT22;8717;53.588;10.176;2023-02-01T00:21:49;3.70;99.90
17202;DHT22;8717;53.588;10.176;2023-02-01T00:24:16;3.80;99.90
17202;DHT22;8717;53.588;10.176;2023-02-01T00:26:46;3.80;99.90
17202;DHT22;8717;53.588;10.176;2023-02-01T00:29:16;3.90;99.90
17202;DHT22;8717;53.588;10.176;2023-02-01T00:31:44;3.80;99.90
17202;DHT22;8717;53.588;10.176;2023-02-01T00:34:12;3.80;99.90
17202;DHT22;8717;53.588;10.176;2023-02-01T00:36:39;3.80;99.90
17202;DHT22;8717;53.588;10.176;2023-02-01T00:39:06;3.80;99.90
17202;DHT22;8717;53.588;10.176;2023-02-01T00:41:33;3.80;99.90
17202;DHT22;8717;53.588;10.176;2023-02-01T00:44:00;3.80;99.90
17202;DHT22;8717;53.588;10.176;2023-02-01T00:46:28;3.70;99.90
17202;DHT22;8717;53.588;10.176;2023-02-01T00:48:55;3.70;99.90
17202;DHT22;8717;53.588;10.176;2023-02-01T00:51:25;3.70;99.90
17202;DHT22;8717;53.588;10.176;2023-02-01T00:53:53;3.70;99.90
17202;DHT22;8717;53.588;10.176;2023-02-01T00:56:20;3.70;99.90
17202;DHT22;8717;53.588;10.176;2023-02-01T00:58:47;3.70;99.90
17202;DHT22;8717;53.588;10.176;2023-02-01T01:01:16;3.80;99.90
17202;DHT22;8717;53.588;10.176;2023-02-01T01:03:47;3.80;99.90
17202;DHT22;8717;53.588;10.176;2023-02-01T01:06:17;3.80;99.90
17202;DHT22;8717;53.588;10.176;2023-02-01T01:08:46;3.90;99.90
17202;DHT22;8717;53.588;10.176;2023-02-01T01:11:15;3.90;99.90
17202;DHT22;8717;53.588;10.176;2023-02-01T01:13:43;4.00;99.90
17202;DHT22;8717;53.588;10.176;2023-02-01T01:16:11;4.00;99.90
17202;DHT22;8717;53.588;10.176;2023-02-01T01:18:39;4.10;99.90
17202;DHT22;8717;53.588;10.176;2023-02-01T01:21:09;4.10;99.90
17202;DHT22;8717;53.588;10.176;2023-02-01T01:23:36;4.10;99.90
17202;DHT22;8717;53.588;10.176;2023-02-01T01:26:05;4.10;99.90
17202;DHT22;8717;53.588;10.176;2023-02-01T01:28:32;4.10;99.90
17202;DHT22;8717;53.588;10.176;2023-02-01T01:30:59;4.10;99.90
17202;DHT22;8717;53.588;10.176;2023-02-01T01:33:26;4.10;99.90
17202;DHT22;8717;53.588;10.176;2023-02-01T01:35:52;4.20;99.90
17202;DHT22;8717;53.588;10.176;2023-02-01T01:38:20;4.20;99.90
17202;DHT22;8717;53.588;10.176;2023-02-01T01:40:48;4.20;99.90
17202;DHT22;8717;53.588;10.176;2023-02-01T01:43:18;4.10;99.90
17202;DHT22;8717;53.588;10.176;2023-02-01T01:45:48;4.20;99.90
17202;DHT22;8717;53.588;10.176;2023-02-01T01:48:20;4.20;99.90
17202;DHT22;8717;53.588;10.176;2023-02-01T01:50:51;4.20;99.90
17202;DHT22;8717;53.588;10.176;2023-02-01T01:53:22;4.20;99.90
17202;DHT22;8717;53.588;10.176;2023-02-01T01:55:51;4.20;99.90
17202;DHT22;8717;53.588;10.176;2023-02-01T01:58:22;4.30;99.90
17202;DHT22;8717;53.588;10.176;2023-02-01T02:00:51;4.30;99.90
17202;DHT22;8717;53.588;10.176;2023-02-01T02:03:20;4.30;99.90
17202;DHT22;8717;53.588;10.176;2023-02-01T02:05:48;4.30;99.90
17202;DHT22;8717;53.588;10.176;2023-02-01T02:08:16;4.30;99.90
17202;DHT22;8717;53.588;10.176;2023-02-01T02:10:48;4.30;99.90
17202;DHT22;8717;53.588;10.176;2023-02-01T02:13:28;4.40;99.90
17202;DHT22;8717;53.588;10.176;2023-02-01T02:16:06;4.40;99.90
17202;DHT22;8717;53.588;10.176;2023-02-01T02:18:41;4.40;99.90
17202;DHT22;8717;53.588;10.176;2023-02-01T02:21:18;4.50;99.90
17202;DHT22;8717;53.588;10.176;2023-02-01T02:27:02;4.50;99.90
17202;DHT22;8717;53.588;10.176;2023-02-01T02:30:02;4.50;99.90
17202;DHT22;8717;53.588;10.176;2023-02-01T02:32:54;4.50;99.90
17202;DHT22;8717;53.588;10.176;2023-02-01T02:35:30;4.50;99.90
17202;DHT22;8717;53.588;10.176;2023-02-01T02:38:05;4.50;99.90
17202;DHT22;8717;53.588;10.176;2023-02-01T02:40:44;4.60;99.90
17202;DHT22;8717;53.588;10.176;2023-02-01T02:43:19;4.60;99.90
17202;DHT22;8717;53.588;10.176;2023-02-01T02:46:06;4.60;99.90
17202;DHT22;8717;53.588;10.176;2023-02-01T02:49:00;4.60;99.90
17202;DHT22;8717;53.588;10.176;2023-02-01T02:51:32;4.60;99.90
17202;DHT22;8717;53.588;10.176;2023-02-01T02:54:22;4.60;99.90
17202;DHT22;8717;53.588;10.176;2023-02-01T02:57:09;4.60;99.90
17202;DHT22;8717;53.588;10.176;2023-02-01T02:59:57;4.60;99.90
17202;DHT22;8717;53.588;10.176;2023-02-01T03:02:44;4.60;99.90
17202;DHT22;8717;53.588;10.176;2023-02-01T03:05:32;4.60;99.90
17202;DHT22;8717;53.588;10.176;2023-02-01T03:08:08;4.50;99.90
17202;DHT22;8717;53.588;10.176;2023-02-01T03:10:47;4.50;99.90
17202;DHT22;8717;53.588;10.176;2023-02-01T03:13:22;4.50;99.90
17202;DHT22;8717;53.588;10.176;2023-02-01T03:15:56;4.50;99.90
17202;DHT22;8717;53.588;10.176;2023-02-01T03:18:28;4.50;99.90
17202;DHT22;8717;53.588;10.176;2023-02-01T03:20:59;4.40;99.90
17202;DHT22;8717;53.588;10.176;2023-02-01T03:23:33;4.40;99.90
17202;DHT22;8717;53.588;10.176;2023-02-01T03:26:07;4.40;99.90
17202;DHT22;8717;53.588;10.176;2023-02-01T03:28:37;4.30;99.90
17202;DHT22;8717;53.588;10.176;2023-02-01T03:31:06;4.30;99.90
17202;DHT22;8717;53.588;10.176;2023-02-01T03:33:33;4.30;99.90
17202;DHT22;8717;53.588;10.176;2023-02-01T03:36:15;4.30;99.90
17202;DHT22;8717;53.588;10.176;2023-02-01T03:38:50;4.30;99.90
17202;DHT22;8717;53.588;10.176;2023-02-01T03:41:26;4.20;99.90
17202;DHT22;8717;53.588;10.176;2023-02-01T03:43:58;4.20;99.90
17202;DHT22;8717;53.588;10.176;2023-02-01T03:46:30;4.20;99.90
17202;DHT22;8717;53.588;10.176;2023-02-01T03:49:01;4.20;99.90
17202;DHT22;8717;53.588;10.176;2023-02-01T03:51:29;4.20;99.90
17202;DHT22;8717;53.588;10.176;2023-02-01T03:54:01;4.20;99.90
17202;DHT22;8717;53.588;10.176;2023-02-01T03:56:30;4.10;99.90
17202;DHT22;8717;53.588;10.176;2023-02-01T03:58:57;4.20;99.90
17202;DHT22;8717;53.588;10.176;2023-02-01T04:01:29;4.10;99.90
17202;DHT22;8717;53.588;10.176;2023-02-01T04:03:57;4.10;99.90
17202;DHT22;8717;53.588;10.176;2023-02-01T04:06:24;4.10;99.90
17202;DHT22;8717;53.588;10.176;2023-02-01T04:08:53;4.10;99.90
17202;DHT22;8717;53.588;10.176;2023-02-01T04:11:21;4.10;99.90
17202;DHT22;8717;53.588;10.176;2023-02-01T04:13:48;4.10;99.90
17202;DHT22;8717;53.588;10.176;2023-02-01T04:16:15;4.10;99.90
17202;DHT22;8717;53.588;10.176;2023-02-01T04:18:42;4.10;99.90
17202;DHT22;8717;53.588;10.176;2023-02-01T04:21:09;4.10;99.90
17202;DHT22;8717;53.588;10.176;2023-02-01T04:23:35;4.10;99.90
17202;DHT22;8717;53.588;10.176;2023-02-01T04:26:04;4.10;99.90
17202;DHT22;8717;53.588;10.176;2023-02-01T04:28:32;4.00;99.90
17202;DHT22;8717;53.588;10.176;2023-02-01T04:30:58;4.00;99.90
17202;DHT22;8717;53.588;10.176;2023-02-01T04:33:25;4.00;99.90
17202;DHT22;8717;53.588;10.176;2023-02-01T04:35:52;4.00;99.90
17202;DHT22;8717;53.588;10.176;2023-02-01T04:38:18;4.00;99.90
17202;DHT22;8717;53.588;10.176;2023-02-01T04:40:47;4.00;99.90
17202;DHT22;8717;53.588;10.176;2023-02-01T04:43:14;4.00;99.90
17202;DHT22;8717;53.588;10.176;2023-02-01T04:45:48;4.00;99.90
17202;DHT22;8717;53.588;10.176;2023-02-01T04:48:16;4.00;99.90
17202;DHT22;8717;53.588;10.176;2023-02-01T04:50:43;4.00;99.90
17202;DHT22;8717;53.588;10.176;2023-02-01T04:53:13;3.90;99.90
17202;DHT22;8717;53.588;10.176;2023-02-01T04:55:39;3.90;99.90
17202;DHT22;8717;53.588;10.176;2023-02-01T04:58:06;3.90;99.90
17202;DHT22;8717;53.588;10.176;2023-02-01T05:00:33;3.90;99.90
17202;DHT22;8717;53.588;10.176;2023-02-01T05:03:02;3.90;99.90
17202;DHT22;8717;53.588;10.176;2023-02-01T05:05:29;3.80;99.90
17202;DHT22;8717;53.588;10.176;2023-02-01T05:07:56;3.90;99.90
17202;DHT22;8717;53.588;10.176;2023-02-01T05:10:23;3.80;99.90
17202;DHT22;8717;53.588;10.176;2023-02-01T05:12:49;3.80;99.90
17202;DHT22;8717;53.588;10.176;2023-02-01T05:15:34;3.80;99.90
17202;DHT22;8717;53.588;10.176;2023-02-01T05:18:02;3.80;99.90
17202;DHT22;8717;53.588;10.176;2023-02-01T05:20:29;3.80;99.90
17202;DHT22;8717;53.588;10.176;2023-02-01T05:22:56;3.70;99.90
17202;DHT22;8717;53.588;10.176;2023-02-01T05:25:23;3.70;99.90
17202;DHT22;8717;53.588;10.176;2023-02-01T05:27:50;3.60;99.90
17202;DHT22;8717;53.588;10.176;2023-02-01T05:30:17;3.60;99.90
17202;DHT22;8717;53.588;10.176;2023-02-01T05:32:44;3.60;99.90
17202;DHT22;8717;53.588;10.176;2023-02-01T05:35:12;3.60;99.90
17202;DHT22;8717;53.588;10.176;2023-02-01T05:37:38;3.50;99.90
17202;DHT22;8717;53.588;10.176;2023-02-01T05:40:06;3.40;99.90
17202;DHT22;8717;53.588;10.176;2023-02-01T05:42:33;3.40;99.90
17202;DHT22;8717;53.588;10.176;2023-02-01T05:45:02;3.30;99.90
17202;DHT22;8717;53.588;10.176;2023-02-01T05:47:30;3.30;99.90
17202;DHT22;8717;53.588;10.176;2023-02-01T05:49:57;3.30;99.90
17202;DHT22;8717;53.588;10.176;2023-02-01T05:52:26;3.20;99.90
17202;DHT22;8717;53.588;10.176;2023-02-01T05:54:52;3.20;99.90
17202;DHT22;8717;53.588;10.176;2023-02-01T05:57:19;3.20;99.90
17202;DHT22;8717;53.588;10.176;2023-02-01T05:59:47;3.10;99.90
17202;DHT22;8717;53.588;10.176;2023-02-01T06:02:14;3.00;99.90
17202;DHT22;8717;53.588;10.176;2023-02-01T06:04:40;2.90;99.90
17202;DHT22;8717;53.588;10.176;2023-02-01T06:07:09;2.90;99.90
17202;DHT22;8717;53.588;10.176;2023-02-01T06:09:38;2.80;99.90
17202;DHT22;8717;53.588;10.176;2023-02-01T06:12:05;2.80;99.90
17202;DHT22;8717;53.588;10.176;2023-02-01T06:14:32;2.70;99.90
17202;DHT22;8717;53.588;10.176;2023-02-01T06:16:59;2.70;99.90
17202;DHT22;8717;53.588;10.176;2023-02-01T06:19:26;2.70;99.90
17202;DHT22;8717;53.588;10.176;2023-02-01T06:21:53;2.60;99.90
17202;DHT22;8717;53.588;10.176;2023-02-01T06:24:19;2.60;99.90
17202;DHT22;8717;53.588;10.176;2023-02-01T06:26:48;2.70;99.90
17202;DHT22;8717;53.588;10.176;2023-02-01T06:29:18;2.60;99.90
17202;DHT22;8717;53.588;10.176;2023-02-01T06:31:45;2.60;99.90
17202;DHT22;8717;53.588;10.176;2023-02-01T06:34:11;2.60;99.90
17202;DHT22;8717;53.588;10.176;2023-02-01T06:36:40;2.60;99.90
17202;DHT22;8717;53.588;10.176;2023-02-01T06:39:07;2.60;99.90
17202;DHT22;8717;53.588;10.176;2023-02-01T06:41:34;2.60;99.90
17202;DHT22;8717;53.588;10.176;2023-02-01T06:44:02;2.60;99.90
17202;DHT22;8717;53.588;10.176;2023-02-01T06:46:29;2.70;99.90
17202;DHT22;8717;53.588;10.176;2023-02-01T06:48:56;2.70;99.90
17202;DHT22;8717;53.588;10.176;2023-02-01T06:51:24;2.70;99.90
17202;DHT22;8717;53.588;10.176;2023-02-01T06:53:54;2.70;99.90
17202;DHT22;8717;53.588;10.176;2023-02-01T06:56:21;2.70;99.90
17202;DHT22;8717;53.588;10.176;2023-02-01T06:58:48;2.80;99.90
17202;DHT22;8717;53.588;10.176;2023-02-01T07:01:17;2.80;99.90
17202;DHT22;8717;53.588;10.176;2023-02-01T07:03:47;2.90;99.90
17202;DHT22;8717;53.588;10.176;2023-02-01T07:06:16;2.80;99.90
17202;DHT22;8717;53.588;10.176;2023-02-01T07:08:43;2.90;99.90
17202;DHT22;8717;53.588;10.176;2023-02-01T07:11:14;2.90;99.90
17202;DHT22;8717;53.588;10.176;2023-02-01T07:13:43;3.00;99.90
17202;DHT22;8717;53.588;10.176;2023-02-01T07:16:13;3.00;99.90
17202;DHT22;8717;53.588;10.176;2023-02-01T07:18:42;3.00;99.90
17202;DHT22;8717;53.588;10.176;2023-02-01T07:21:09;3.00;99.90
17202;DHT22;8717;53.588;10.176;2023-02-01T07:23:36;3.10;99.90
17202;DHT22;8717;53.588;10.176;2023-02-01T07:26:05;3.10;99.90
17202;DHT22;8717;53.588;10.176;2023-02-01T07:28:34;3.20;99.90
17202;DHT22;8717;53.588;10.176;2023-02-01T07:31:06;3.20;99.90
17202;DHT22;8717;53.588;10.176;2023-02-01T07:33:33;3.20;99.90
17202;DHT22;8717;53.588;10.176;2023-02-01T07:36:03;3.20;99.90
17202;DHT22;8717;53.588;10.176;2023-02-01T07:38:30;3.30;99.90
17202;DHT22;8717;53.588;10.176;2023-02-01T07:40:57;3.30;99.90
17202;DHT22;8717;53.588;10.176;2023-02-01T07:43:25;3.30;99.90
17202;DHT22;8717;53.588;10.176;2023-02-01T07:45:52;3.40;99.90
17202;DHT22;8717;53.588;10.176;2023-02-01T07:48:23;3.40;99.90
17202;DHT22;8717;53.588;10.176;2023-02-01T07:50:57;3.40;99.90
17202;DHT22;8717;53.588;10.176;2023-02-01T07:53:25;3.50;99.90
17202;DHT22;8717;53.588;10.176;2023-02-01T07:55:52;3.60;99.90
17202;DHT22;8717;53.588;10.176;2023-02-01T07:58:21;3.60;99.90
17202;DHT22;8717;53.588;10.176;2023-02-01T08:00:48;3.60;99.90
17202;DHT22;8717;53.588;10.176;2023-02-01T08:03:32;3.60;99.90
17202;DHT22;8717;53.588;10.176;2023-02-01T08:05:59;3.60;99.90
17202;DHT22;8717;53.588;10.176;2023-02-01T08:08:27;3.60;99.90
17202;DHT22;8717;53.588;10.176;2023-02-01T08:10:57;3.60;99.90
17202;DHT22;8717;53.588;10.176;2023-02-01T08:13:24;3.60;99.90
17202;DHT22;8717;53.588;10.176;2023-02-01T08:15:51;3.60;99.90
17202;DHT22;8717;53.588;10.176;2023-02-01T08:18:17;3.70;99.90
17202;DHT22;8717;53.588;10.176;2023-02-01T08:20:44;3.70;99.90
17202;DHT22;8717;53.588;10.176;2023-02-01T08:23:13;3.70;99.90
17202;DHT22;8717;53.588;10.176;2023-02-01T08:25:41;3.80;99.90
17202;DHT22;8717;53.588;10.176;2023-02-01T08:28:08;3.80;99.90
17202;DHT22;8717;53.588;10.176;2023-02-01T08:30:36;3.90;99.90
17202;DHT22;8717;53.588;10.176;2023-02-01T08:33:04;3.90;99.90
17202;DHT22;8717;53.588;10.176;2023-02-01T08:35:32;4.00;99.90
17202;DHT22;8717;53.588;10.176;2023-02-01T08:37:59;4.00;99.90
17202;DHT22;8717;53.588;10.176;2023-02-01T08:40:25;4.10;99.90
17202;DHT22;8717;53.588;10.176;2023-02-01T08:42:53;4.20;99.90
17202;DHT22;8717;53.588;10.176;2023-02-01T08:45:21;4.30;99.90
17202;DHT22;8717;53.588;10.176;2023-02-01T08:47:49;4.30;99.90
17202;DHT22;8717;53.588;10.176;2023-02-01T08:50:17;4.40;99.90
17202;DHT22;8717;53.588;10.176;2023-02-01T08:52:44;4.50;99.90
17202;DHT22;8717;53.588;10.176;2023-02-01T08:55:11;4.50;99.90
17202;DHT22;8717;53.588;10.176;2023-02-01T08:57:38;4.50;99.90
17202;DHT22;8717;53.588;10.176;2023-02-01T09:00:11;4.50;99.90
17202;DHT22;8717;53.588;10.176;2023-02-01T09:02:39;4.60;99.90
17202;DHT22;8717;53.588;10.176;2023-02-01T09:05:06;4.50;99.90
17202;DHT22;8717;53.588;10.176;2023-02-01T09:07:33;4.50;99.90
17202;DHT22;8717;53.588;10.176;2023-02-01T09:10:06;4.50;99.90
17202;DHT22;8717;53.588;10.176;2023-02-01T09:12:37;4.50;99.90
17202;DHT22;8717;53.588;10.176;2023-02-01T09:15:06;4.50;99.90
17202;DHT22;8717;53.588;10.176;2023-02-01T09:17:37;4.60;99.90
17202;DHT22;8717;53.588;10.176;2023-02-01T09:20:08;4.70;99.90
17202;DHT22;8717;53.588;10.176;2023-02-01T09:22:36;4.80;99.90
17202;DHT22;8717;53.588;10.176;2023-02-01T09:25:05;5.10;99.90
17202;DHT22;8717;53.588;10.176;2023-02-01T09:27:34;5.20;99.90
17202;DHT22;8717;53.588;10.176;2023-02-01T09:30:02;5.40;99.90
17202;DHT22;8717;53.588;10.176;2023-02-01T09:32:30;5.70;99.90
17202;DHT22;8717;53.588;10.176;2023-02-01T09:34:57;5.90;99.90
17202;DHT22;8717;53.588;10.176;2023-02-01T09:37:23;6.30;99.90
17202;DHT22;8717;53.588;10.176;2023-02-01T09:39:50;6.50;99.90
17202;DHT22;8717;53.588;10.176;2023-02-01T09:42:24;6.70;99.90
17202;DHT22;8717;53.588;10.176;2023-02-01T09:45:22;6.80;99.90
17202;DHT22;8717;53.588;10.176;2023-02-01T09:47:54;6.90;99.90
17202;DHT22;8717;53.588;10.176;2023-02-01T09:50:32;7.00;99.90
17202;DHT22;8717;53.588;10.176;2023-02-01T09:53:02;7.00;99.90
17202;DHT22;8717;53.588;10.176;2023-02-01T09:55:35;7.00;99.90
17202;DHT22;8717;53.588;10.176;2023-02-01T09:58:06;6.90;99.90
17202;DHT22;8717;53.588;10.176;2023-02-01T10:00:35;6.80;99.90
17202;DHT22;8717;53.588;10.176;2023-02-01T10:03:04;6.70;99.90
17202;DHT22;8717;53.588;10.176;2023-02-01T10:06:12;6.60;99.90
17202;DHT22;8717;53.588;10.176;2023-02-01T10:08:57;6.50;99.90
17202;DHT22;8717;53.588;10.176;2023-02-01T10:11:39;6.40;99.90
17202;DHT22;8717;53.588;10.176;2023-02-01T10:14:28;6.40;99.90
17202;DHT22;8717;53.588;10.176;2023-02-01T10:17:04;6.30;99.90
17202;DHT22;8717;53.588;10.176;2023-02-01T10:19:41;6.40;99.90
17202;DHT22;8717;53.588;10.176;2023-02-01T10:22:20;6.40;99.90
17202;DHT22;8717;53.588;10.176;2023-02-01T10:24:54;6.40;99.90
17202;DHT22;8717;53.588;10.176;2023-02-01T10:27:30;6.40;99.90
17202;DHT22;8717;53.588;10.176;2023-02-01T10:30:05;6.30;99.90
17202;DHT22;8717;53.588;10.176;2023-02-01T10:32:34;6.30;99.90
17202;DHT22;8717;53.588;10.176;2023-02-01T10:35:08;6.30;99.90
17202;DHT22;8717;53.588;10.176;2023-02-01T10:37:36;6.20;99.90
17202;DHT22;8717;53.588;10.176;2023-02-01T10:40:15;6.20;99.90
17202;DHT22;8717;53.588;10.176;2023-02-01T10:42:42;6.10;99.90
17202;DHT22;8717;53.588;10.176;2023-02-01T10:45:13;6.10;99.90
17202;DHT22;8717;53.588;10.176;2023-02-01T10:47:41;6.00;99.90
17202;DHT22;8717;53.588;10.176;2023-02-01T10:50:18;6.00;99.90
17202;DHT22;8717;53.588;10.176;2023-02-01T10:52:49;5.90;99.90
17202;DHT22;8717;53.588;10.176;2023-02-01T10:55:34;5.90;99.90
17202;DHT22;8717;53.588;10.176;2023-02-01T10:58:02;5.90;99.90
17202;DHT22;8717;53.588;10.176;2023-02-01T11:00:40;5.80;99.90
17202;DHT22;8717;53.588;10.176;2023-02-01T11:03:33;5.80;99.90
17202;DHT22;8717;53.588;10.176;2023-02-01T11:06:11;5.70;99.90
17202;DHT22;8717;53.588;10.176;2023-02-01T11:08:46;5.60;99.90
17202;DHT22;8717;53.588;10.176;2023-02-01T11:11:15;5.50;99.90
17202;DHT22;8717;53.588;10.176;2023-02-01T11:13:44;5.50;99.90
17202;DHT22;8717;53.588;10.176;2023-02-01T11:16:13;5.40;99.90
17202;DHT22;8717;53.588;10.176;2023-02-01T11:18:40;5.30;99.90
17202;DHT22;8717;53.588;10.176;2023-02-01T11:21:12;5.20;99.90
17202;DHT22;8717;53.588;10.176;2023-02-01T11:23:43;5.10;99.90
17202;DHT22;8717;53.588;10.176;2023-02-01T11:26:13;4.90;99.90
17202;DHT22;8717;53.588;10.176;2023-02-01T11:28:48;4.70;99.90
17202;DHT22;8717;53.588;10.176;2023-02-01T11:31:16;4.50;99.90
17202;DHT22;8717;53.588;10.176;2023-02-01T11:33:47;4.30;99.90
17202;DHT22;8717;53.588;10.176;2023-02-01T11:36:17;4.20;99.90
17202;DHT22;8717;53.588;10.176;2023-02-01T11:38:47;4.10;99.90
17202;DHT22;8717;53.588;10.176;2023-02-01T11:41:22;4.10;99.90
17202;DHT22;8717;53.588;10.176;2023-02-01T11:43:54;4.10;99.90
17202;DHT22;8717;53.588;10.176;2023-02-01T11:46:24;4.10;99.90
17202;DHT22;8717;53.588;10.176;2023-02-01T11:48:55;4.10;99.90
17202;DHT22;8717;53.588;10.176;2023-02-01T11:51:38;4.10;99.90
17202;DHT22;8717;53.588;10.176;2023-02-01T11:54:20;4.20;99.90
17202;DHT22;8717;53.588;10.176;2023-02-01T11:57:00;4.20;99.90
17202;DHT22;8717;53.588;10.176;2023-02-01T11:59:43;4.30;99.90
17202;DHT22;8717;53.588;10.176;2023-02-01T12:02:37;4.40;99.90
17202;DHT22;8717;53.588;10.176;2023-02-01T12:05:25;4.50;99.90
17202;DHT22;8717;53.588;10.176;2023-02-01T12:08:19;4.60;99.90
17202;DHT22;8717;53.588;10.176;2023-02-01T12:11:01;4.70;99.90
17202;DHT22;8717;53.588;10.176;2023-02-01T12:13:51;4.70;99.90
17202;DHT22;8717;53.588;10.176;2023-02-01T12:16:29;4.80;99.90
17202;DHT22;8717;53.588;10.176;2023-02-01T12:19:22;4.80;99.90
17202;DHT22;8717;53.588;10.176;2023-02-01T12:22:13;4.80;99.90
17202;DHT22;8717;53.588;10.176;2023-02-01T12:25:13;4.90;99.90
17202;DHT22;8717;53.588;10.176;2023-02-01T12:34:01;4.80;99.90
17202;DHT22;8717;53.588;10.176;2023-02-01T12:36:38;4.70;99.90
17202;DHT22;8717;53.588;10.176;2023-02-01T12:39:15;4.70;99.90
17202;DHT22;8717;53.588;10.176;2023-02-01T12:41:52;4.70;99.90
17202;DHT22;8717;53.588;10.176;2023-02-01T12:44:42;4.60;99.90
17202;DHT22;8717;53.588;10.176;2023-02-01T12:47:18;4.60;99.90
17202;DHT22;8717;53.588;10.176;2023-02-01T12:49:54;4.60;99.90
17202;DHT22;8717;53.588;10.176;2023-02-01T12:52:28;4.50;99.90
17202;DHT22;8717;53.588;10.176;2023-02-01T12:55:06;4.40;99.90
17202;DHT22;8717;53.588;10.176;2023-02-01T12:57:40;4.40;99.90
17202;DHT22;8717;53.588;10.176;2023-02-01T13:00:17;4.30;99.90
17202;DHT22;8717;53.588;10.176;2023-02-01T13:02:52;4.30;99.90
17202;DHT22;8717;53.588;10.176;2023-02-01T13:05:31;4.20;99.90
17202;DHT22;8717;53.588;10.176;2023-02-01T13:08:03;4.10;99.90
17202;DHT22;8717;53.588;10.176;2023-02-01T13:10:35;4.10;99.90
17202;DHT22;8717;53.588;10.176;2023-02-01T13:13:11;4.10;99.90
17202;DHT22;8717;53.588;10.176;2023-02-01T13:15:44;4.10;99.90
17202;DHT22;8717;53.588;10.176;2023-02-01T13:18:15;4.00;99.90
17202;DHT22;8717;53.588;10.176;2023-02-01T13:20:48;4.00;99.90
17202;DHT22;8717;53.588;10.176;2023-02-01T13:23:24;4.00;99.90
17202;DHT22;8717;53.588;10.176;2023-02-01T13:25:56;4.00;99.90
17202;DHT22;8717;53.588;10.176;2023-02-01T13:28:27;4.00;99.90
17202;DHT22;8717;53.588;10.176;2023-02-01T13:31:03;4.10;99.90
17202;DHT22;8717;53.588;10.176;2023-02-01T13:33:47;4.10;99.90
17202;DHT22;8717;53.588;10.176;2023-02-01T13:36:40;4.10;99.90
17202;DHT22;8717;53.588;10.176;2023-02-01T13:39:24;4.20;99.90
17202;DHT22;8717;53.588;10.176;2023-02-01T13:41:56;4.40;99.90
17202;DHT22;8717;53.588;10.176;2023-02-01T13:44:28;4.60;99.90
17202;DHT22;8717;53.588;10.176;2023-02-01T13:46:59;4.70;99.90
17202;DHT22;8717;53.588;10.176;2023-02-01T13:49:29;4.90;99.90
17202;DHT22;8717;53.588;10.176;2023-02-01T13:51:58;5.00;99.90
17202;DHT22;8717;53.588;10.176;2023-02-01T13:54:28;5.10;99.90
17202;DHT22;8717;53.588;10.176;2023-02-01T13:57:03;5.10;99.90
17202;DHT22;8717;53.588;10.176;2023-02-01T13:59:49;5.10;99.90
17202;DHT22;8717;53.588;10.176;2023-02-01T14:02:50;5.00;99.90
17202;DHT22;8717;53.588;10.176;2023-02-01T14:05:54;5.00;99.90
17202;DHT22;8717;53.588;10.176;2023-02-01T14:08:29;4.90;99.90
17202;DHT22;8717;53.588;10.176;2023-02-01T14:11:04;4.80;99.90
17202;DHT22;8717;53.588;10.176;2023-02-01T14:13:32;4.70;99.90
17202;DHT22;8717;53.588;10.176;2023-02-01T14:16:15;4.60;99.90
17202;DHT22;8717;53.588;10.176;2023-02-01T14:19:00;4.50;99.90
17202;DHT22;8717;53.588;10.176;2023-02-01T14:21:29;4.40;99.90
17202;DHT22;8717;53.588;10.176;2023-02-01T14:23:59;4.30;99.90
17202;DHT22;8717;53.588;10.176;2023-02-01T14:26:42;4.20;99.90
17202;DHT22;8717;53.588;10.176;2023-02-01T14:29:23;4.10;99.90
17202;DHT22;8717;53.588;10.176;2023-02-01T14:31:59;4.00;99.90
17202;DHT22;8717;53.588;10.176;2023-02-01T14:34:36;3.80;99.90
17202;DHT22;8717;53.588;10.176;2023-02-01T14:37:11;3.70;99.90
17202;DHT22;8717;53.588;10.176;2023-02-01T14:39:55;3.50;99.90
17202;DHT22;8717;53.588;10.176;2023-02-01T14:42:26;3.40;99.90
17202;DHT22;8717;53.588;10.176;2023-02-01T14:45:45;3.20;99.90
17202;DHT22;8717;53.588;10.176;2023-02-01T14:47:48;3.10;99.90
17202;DHT22;8717;53.588;10.176;2023-02-01T14:50:31;3.00;99.90
17202;DHT22;8717;53.588;10.176;2023-02-01T14:53:17;2.90;99.90
17202;DHT22;8717;53.588;10.176;2023-02-01T14:55:48;2.80;99.90
17202;DHT22;8717;53.588;10.176;2023-02-01T14:58:20;2.80;99.90
17202;DHT22;8717;53.588;10.176;2023-02-01T15:00:52;2.80;99.90
17202;DHT22;8717;53.588;10.176;2023-02-01T15:03:43;2.80;99.90
17202;DHT22;8717;53.588;10.176;2023-02-01T15:06:29;2.80;99.90
17202;DHT22;8717;53.588;10.176;2023-02-01T15:08:59;2.80;99.90
17202;DHT22;8717;53.588;10.176;2023-02-01T15:11:27;2.90;99.90
17202;DHT22;8717;53.588;10.176;2023-02-01T15:13:54;2.90;99.90
17202;DHT22;8717;53.588;10.176;2023-02-01T15:16:23;2.90;99.90
17202;DHT22;8717;53.588;10.176;2023-02-01T15:19:07;3.00;99.90
17202;DHT22;8717;53.588;10.176;2023-02-01T15:21:50;3.00;99.90
17202;DHT22;8717;53.588;10.176;2023-02-01T15:24:30;3.10;99.90
17202;DHT22;8717;53.588;10.176;2023-02-01T15:27:03;3.20;99.90
17202;DHT22;8717;53.588;10.176;2023-02-01T15:29:31;3.20;99.90
17202;DHT22;8717;53.588;10.176;2023-02-01T15:31:59;3.20;99.90
17202;DHT22;8717;53.588;10.176;2023-02-01T15:34:46;3.30;99.90
17202;DHT22;8717;53.588;10.176;2023-02-01T15:37:14;3.30;99.90
17202;DHT22;8717;53.588;10.176;2023-02-01T15:40:02;3.30;99.90
17202;DHT22;8717;53.588;10.176;2023-02-01T15:42:29;3.30;99.90
17202;DHT22;8717;53.588;10.176;2023-02-01T15:44:56;3.30;99.90
17202;DHT22;8717;53.588;10.176;2023-02-01T15:47:25;3.40;99.90
17202;DHT22;8717;53.588;10.176;2023-02-01T15:49:55;3.30;99.90
17202;DHT22;8717;53.588;10.176;2023-02-01T15:52:25;3.40;99.90
17202;DHT22;8717;53.588;10.176;2023-02-01T15:54:55;3.40;99.90
17202;DHT22;8717;53.588;10.176;2023-02-01T15:57:26;3.40;99.90
17202;DHT22;8717;53.588;10.176;2023-02-01T15:59:57;3.40;99.90
17202;DHT22;8717;53.588;10.176;2023-02-01T16:02:26;3.40;99.90
17202;DHT22;8717;53.588;10.176;2023-02-01T16:04:55;3.40;99.90
17202;DHT22;8717;53.588;10.176;2023-02-01T16:07:26;3.50;99.90
17202;DHT22;8717;53.588;10.176;2023-02-01T16:09:55;3.40;99.90
17202;DHT22;8717;53.588;10.176;2023-02-01T16:12:28;3.50;99.90
17202;DHT22;8717;53.588;10.176;2023-02-01T16:14:56;3.40;99.90
17202;DHT22;8717;53.588;10.176;2023-02-01T16:17:22;3.50;99.90
17202;DHT22;8717;53.588;10.176;2023-02-01T16:19:50;3.50;99.90
17202;DHT22;8717;53.588;10.176;2023-02-01T16:22:18;3.50;99.90
17202;DHT22;8717;53.588;10.176;2023-02-01T16:24:44;3.50;99.90
17202;DHT22;8717;53.588;10.176;2023-02-01T16:27:11;3.50;99.90